sensor_id;sensor_type;location;lat;lon;timestamp;temperature;humidity
15690;DHT22;7945;48.816;11.506;2022-07-29T00:00:31;24.70;68.80
15690;DHT22;7945;48.816;11.506;2022-07-29T00:02:58;24.70;67.90
15690;DHT22;7945;48.816;11.506;2022-07-29T00:05:27;24.70;67.90
15690;DHT22;7945;48.816;11.506;2022-07-29T00:07:54;24.60;68.20
15690;DHT22;7945;48.816;11.506;2022-07-29T00:10:22;24.60;70.00
15690;DHT22;7945;48.816;11.506;2022-07-29T00:12:49;24.40;71.80
15690;DHT22;7945;48.816;11.506;2022-07-29T00:15:16;24.30;71.50
15690;DHT22;7945;48.816;11.506;2022-07-29T00:17:44;24.20;72.70
15690;DHT22;7945;48.816;11.506;2022-07-29T00:20:11;24.10;74.30
15690;DHT22;7945;48.816;11.506;2022-07-29T00:22:40;24.10;76.00
15690;DHT22;7945;48.816;11.506;2022-07-29T00:25:08;24.00;76.00
15690;DHT22;7945;48.816;11.506;2022-07-29T00:27:35;24.00;76.90
15690;DHT22;7945;48.816;11.506;2022-07-29T00:30:04;23.90;77.40
15690;DHT22;7945;48.816;11.506;2022-07-29T00:32:32;23.90;77.20
15690;DHT22;7945;48.816;11.506;2022-07-29T00:35:00;23.90;77.60
15690;DHT22;7945;48.816;11.506;2022-07-29T00:37:46;23.90;78.00
15690;DHT22;7945;48.816;11.506;2022-07-29T00:40:13;23.90;78.90
15690;DHT22;7945;48.816;11.506;2022-07-29T00:42:43;23.90;78.90
15690;DHT22;7945;48.816;11.506;2022-07-29T00:45:10;23.80;80.50
15690;DHT22;7945;48.816;11.506;2022-07-29T00:47:37;23.80;79.60
15690;DHT22;7945;48.816;11.506;2022-07-29T00:50:05;23.80;80.10
15690;DHT22;7945;48.816;11.506;2022-07-29T00:52:33;23.80;79.90
15690;DHT22;7945;48.816;11.506;2022-07-29T00:55:03;23.80;80.10
15690;DHT22;7945;48.816;11.506;2022-07-29T00:57:30;23.80;80.20
15690;DHT22;7945;48.816;11.506;2022-07-29T00:59:57;23.80;80.20
15690;DHT22;7945;48.816;11.506;2022-07-29T01:02:24;23.80;80.10
15690;DHT22;7945;48.816;11.506;2022-07-29T01:04:53;23.80;80.00
15690;DHT22;7945;48.816;11.506;2022-07-29T01:07:20;23.80;79.90
15690;DHT22;7945;48.816;11.506;2022-07-29T01:09:47;23.80;79.80
15690;DHT22;7945;48.816;11.506;2022-07-29T01:12:18;23.90;79.80
15690;DHT22;7945;48.816;11.506;2022-07-29T01:14:49;23.90;79.80
15690;DHT22;7945;48.816;11.506;2022-07-29T01:17:21;23.90;79.90
15690;DHT22;7945;48.816;11.506;2022-07-29T01:19:53;23.90;79.90
15690;DHT22;7945;48.816;11.506;2022-07-29T01:22:31;24.00;79.80
15690;DHT22;7945;48.816;11.506;2022-07-29T01:25:34;23.90;79.80
15690;DHT22;7945;48.816;11.506;2022-07-29T01:30:51;23.90;79.80
15690;DHT22;7945;48.816;11.506;2022-07-29T01:33:20;23.90;79.80
15690;DHT22;7945;48.816;11.506;2022-07-29T01:36:11;23.90;80.50
15690;DHT22;7945;48.816;11.506;2022-07-29T01:38:42;23.90;79.80
15690;DHT22;7945;48.816;11.506;2022-07-29T01:41:13;24.00;79.80
15690;DHT22;7945;48.816;11.506;2022-07-29T01:43:48;24.00;79.80
15690;DHT22;7945;48.816;11.506;2022-07-29T01:46:24;24.00;80.00
15690;DHT22;7945;48.816;11.506;2022-07-29T01:48:54;24.00;80.70
15690;DHT22;7945;48.816;11.506;2022-07-29T01:51:28;24.00;80.20
15690;DHT22;7945;48.816;11.506;2022-07-29T01:54:02;23.90;81.00
15690;DHT22;7945;48.816;11.506;2022-07-29T01:56:32;23.90;80.50
15690;DHT22;7945;48.816;11.506;2022-07-29T01:59:01;23.80;80.70
15690;DHT22;7945;48.816;11.506;2022-07-29T02:01:32;23.80;81.40
15690;DHT22;7945;48.816;11.506;2022-07-29T02:04:03;23.70;81.70
15690;DHT22;7945;48.816;11.506;2022-07-29T02:06:32;23.60;82.00
15690;DHT22;7945;48.816;11.506;2022-07-29T02:09:01;23.60;82.40
15690;DHT22;7945;48.816;11.506;2022-07-29T02:11:29;23.60;82.40
15690;DHT22;7945;48.816;11.506;2022-07-29T02:13:58;23.60;82.70
15690;DHT22;7945;48.816;11.506;2022-07-29T02:16:27;23.60;83.00
15690;DHT22;7945;48.816;11.506;2022-07-29T02:18:57;23.50;83.30
15690;DHT22;7945;48.816;11.506;2022-07-29T02:21:26;23.50;84.20
15690;DHT22;7945;48.816;11.506;2022-07-29T02:23:54;23.50;83.70
15690;DHT22;7945;48.816;11.506;2022-07-29T02:26:24;23.50;84.10
15690;DHT22;7945;48.816;11.506;2022-07-29T02:28:54;23.40;84.10
15690;DHT22;7945;48.816;11.506;2022-07-29T02:31:26;23.40;84.20
15690;DHT22;7945;48.816;11.506;2022-07-29T02:33:56;23.40;84.30
15690;DHT22;7945;48.816;11.506;2022-07-29T02:36:24;23.30;84.80
15690;DHT22;7945;48.816;11.506;2022-07-29T02:38:53;23.10;85.60
15690;DHT22;7945;48.816;11.506;2022-07-29T02:41:27;23.10;86.20
15690;DHT22;7945;48.816;11.506;2022-07-29T02:43:56;22.90;86.70
15690;DHT22;7945;48.816;11.506;2022-07-29T02:46:29;22.90;87.60
15690;DHT22;7945;48.816;11.506;2022-07-29T02:49:04;22.90;87.10
15690;DHT22;7945;48.816;11.506;2022-07-29T02:51:40;22.90;87.20
15690;DHT22;7945;48.816;11.506;2022-07-29T02:54:09;23.00;87.60
15690;DHT22;7945;48.816;11.506;2022-07-29T02:56:38;22.90;88.00
15690;DHT22;7945;48.816;11.506;2022-07-29T02:59:10;22.90;88.10
15690;DHT22;7945;48.816;11.506;2022-07-29T03:01:41;22.90;89.00
15690;DHT22;7945;48.816;11.506;2022-07-29T03:04:12;22.90;88.90
15690;DHT22;7945;48.816;11.506;2022-07-29T03:06:40;23.00;88.90
15690;DHT22;7945;48.816;11.506;2022-07-29T03:09:10;23.00;89.20
15690;DHT22;7945;48.816;11.506;2022-07-29T03:11:38;23.00;89.50
15690;DHT22;7945;48.816;11.506;2022-07-29T03:14:05;23.00;90.00
15690;DHT22;7945;48.816;11.506;2022-07-29T03:16:34;23.10;90.10
15690;DHT22;7945;48.816;11.506;2022-07-29T03:19:03;23.10;90.20
15690;DHT22;7945;48.816;11.506;2022-07-29T03:21:33;23.10;90.30
15690;DHT22;7945;48.816;11.506;2022-07-29T03:24:00;23.10;90.30
15690;DHT22;7945;48.816;11.506;2022-07-29T03:26:27;23.10;90.30
15690;DHT22;7945;48.816;11.506;2022-07-29T03:28:54;23.10;90.40
15690;DHT22;7945;48.816;11.506;2022-07-29T03:31:21;23.10;90.50
15690;DHT22;7945;48.816;11.506;2022-07-29T03:33:48;23.10;91.00
15690;DHT22;7945;48.816;11.506;2022-07-29T03:36:15;23.10;91.50
15690;DHT22;7945;48.816;11.506;2022-07-29T03:38:45;23.10;92.00
15690;DHT22;7945;48.816;11.506;2022-07-29T03:41:13;23.10;92.50
15690;DHT22;7945;48.816;11.506;2022-07-29T03:43:41;23.10;92.70
15690;DHT22;7945;48.816;11.506;2022-07-29T03:46:10;23.10;92.90
15690;DHT22;7945;48.816;11.506;2022-07-29T03:48:42;23.10;93.40
15690;DHT22;7945;48.816;11.506;2022-07-29T03:51:13;23.00;93.30
15690;DHT22;7945;48.816;11.506;2022-07-29T03:53:40;23.00;93.40
15690;DHT22;7945;48.816;11.506;2022-07-29T03:56:10;23.00;93.70
15690;DHT22;7945;48.816;11.506;2022-07-29T03:58:38;22.90;93.50
15690;DHT22;7945;48.816;11.506;2022-07-29T04:01:06;22.90;93.80
15690;DHT22;7945;48.816;11.506;2022-07-29T04:03:33;22.90;94.20
15690;DHT22;7945;48.816;11.506;2022-07-29T04:06:02;22.80;94.30
15690;DHT22;7945;48.816;11.506;2022-07-29T04:08:31;22.80;94.30
15690;DHT22;7945;48.816;11.506;2022-07-29T04:10:58;22.70;94.60
15690;DHT22;7945;48.816;11.506;2022-07-29T04:13:27;22.70;94.50
15690;DHT22;7945;48.816;11.506;2022-07-29T04:15:54;22.70;94.70
15690;DHT22;7945;48.816;11.506;2022-07-29T04:18:21;22.70;95.00
15690;DHT22;7945;48.816;11.506;2022-07-29T04:20:48;22.70;95.00
15690;DHT22;7945;48.816;11.506;2022-07-29T04:23:15;22.70;95.00
15690;DHT22;7945;48.816;11.506;2022-07-29T04:25:43;22.70;95.10
15690;DHT22;7945;48.816;11.506;2022-07-29T04:28:10;22.70;95.00
15690;DHT22;7945;48.816;11.506;2022-07-29T04:30:38;22.70;95.00
15690;DHT22;7945;48.816;11.506;2022-07-29T04:33:06;22.70;95.00
15690;DHT22;7945;48.816;11.506;2022-07-29T04:35:35;22.70;95.10
15690;DHT22;7945;48.816;11.506;2022-07-29T04:38:03;22.70;95.10
15690;DHT22;7945;48.816;11.506;2022-07-29T04:40:30;22.70;95.10
15690;DHT22;7945;48.816;11.506;2022-07-29T04:42:59;22.60;95.10
15690;DHT22;7945;48.816;11.506;2022-07-29T04:45:26;22.60;95.30
15690;DHT22;7945;48.816;11.506;2022-07-29T04:47:54;22.60;95.20
15690;DHT22;7945;48.816;11.506;2022-07-29T04:50:21;22.70;95.20
15690;DHT22;7945;48.816;11.506;2022-07-29T04:52:48;22.70;95.20
15690;DHT22;7945;48.816;11.506;2022-07-29T04:55:15;22.70;95.20
15690;DHT22;7945;48.816;11.506;2022-07-29T04:57:42;22.80;95.30
15690;DHT22;7945;48.816;11.506;2022-07-29T05:00:10;22.80;95.50
15690;DHT22;7945;48.816;11.506;2022-07-29T05:02:37;22.90;95.20
15690;DHT22;7945;48.816;11.506;2022-07-29T05:05:06;22.90;95.00
15690;DHT22;7945;48.816;11.506;2022-07-29T05:07:33;23.00;94.90
15690;DHT22;7945;48.816;11.506;2022-07-29T05:10:00;23.00;94.90
15690;DHT22;7945;48.816;11.506;2022-07-29T05:12:27;23.10;94.70
15690;DHT22;7945;48.816;11.506;2022-07-29T05:14:54;23.20;94.70
15690;DHT22;7945;48.816;11.506;2022-07-29T05:17:21;23.20;94.60
15690;DHT22;7945;48.816;11.506;2022-07-29T05:19:48;23.30;94.70
15690;DHT22;7945;48.816;11.506;2022-07-29T05:22:18;23.40;94.30
15690;DHT22;7945;48.816;11.506;2022-07-29T05:24:45;23.60;94.30
15690;DHT22;7945;48.816;11.506;2022-07-29T05:27:12;24.60;92.60
15690;DHT22;7945;48.816;11.506;2022-07-29T05:29:39;25.70;90.80
15690;DHT22;7945;48.816;11.506;2022-07-29T05:32:06;26.90;87.70
15690;DHT22;7945;48.816;11.506;2022-07-29T05:34:34;28.30;83.70
15690;DHT22;7945;48.816;11.506;2022-07-29T05:37:01;29.60;79.30
15690;DHT22;7945;48.816;11.506;2022-07-29T05:39:29;30.60;75.90
15690;DHT22;7945;48.816;11.506;2022-07-29T05:41:56;31.50;72.90
15690;DHT22;7945;48.816;11.506;2022-07-29T05:44:22;31.80;71.00
15690;DHT22;7945;48.816;11.506;2022-07-29T05:46:49;31.40;71.40
15690;DHT22;7945;48.816;11.506;2022-07-29T05:49:16;30.60;73.10
15690;DHT22;7945;48.816;11.506;2022-07-29T05:51:44;29.80;74.50
15690;DHT22;7945;48.816;11.506;2022-07-29T05:54:11;29.10;76.60
15690;DHT22;7945;48.816;11.506;2022-07-29T05:56:39;28.60;77.90
15690;DHT22;7945;48.816;11.506;2022-07-29T05:59:06;28.40;78.40
15690;DHT22;7945;48.816;11.506;2022-07-29T06:01:33;28.40;78.80
15690;DHT22;7945;48.816;11.506;2022-07-29T06:04:05;28.80;77.40
15690;DHT22;7945;48.816;11.506;2022-07-29T06:06:32;29.20;76.60
15690;DHT22;7945;48.816;11.506;2022-07-29T06:08:59;29.30;75.50
15690;DHT22;7945;48.816;11.506;2022-07-29T06:14:37;29.20;74.40
15690;DHT22;7945;48.816;11.506;2022-07-29T06:17:04;29.10;75.20
15690;DHT22;7945;48.816;11.506;2022-07-29T06:19:34;28.90;75.50
15690;DHT22;7945;48.816;11.506;2022-07-29T06:22:02;28.70;75.90
15690;DHT22;7945;48.816;11.506;2022-07-29T06:24:29;28.50;75.90
15690;DHT22;7945;48.816;11.506;2022-07-29T06:26:56;28.30;76.90
15690;DHT22;7945;48.816;11.506;2022-07-29T06:29:23;28.30;77.50
15690;DHT22;7945;48.816;11.506;2022-07-29T06:31:51;28.20;77.30
15690;DHT22;7945;48.816;11.506;2022-07-29T06:34:18;28.20;77.60
15690;DHT22;7945;48.816;11.506;2022-07-29T06:36:45;28.10;78.00
15690;DHT22;7945;48.816;11.506;2022-07-29T06:39:12;28.00;77.90
15690;DHT22;7945;48.816;11.506;2022-07-29T06:41:38;27.90;77.60
15690;DHT22;7945;48.816;11.506;2022-07-29T06:44:05;27.80;77.90
15690;DHT22;7945;48.816;11.506;2022-07-29T06:46:32;27.60;77.80
15690;DHT22;7945;48.816;11.506;2022-07-29T06:49:01;27.50;78.50
15690;DHT22;7945;48.816;11.506;2022-07-29T06:51:27;27.30;78.80
15690;DHT22;7945;48.816;11.506;2022-07-29T06:53:54;27.30;78.90
15690;DHT22;7945;48.816;11.506;2022-07-29T06:56:23;27.20;78.80
15690;DHT22;7945;48.816;11.506;2022-07-29T06:58:49;27.30;78.50
15690;DHT22;7945;48.816;11.506;2022-07-29T07:01:16;27.40;77.50
15690;DHT22;7945;48.816;11.506;2022-07-29T07:03:43;27.40;77.70
15690;DHT22;7945;48.816;11.506;2022-07-29T07:06:11;27.30;77.40
15690;DHT22;7945;48.816;11.506;2022-07-29T07:08:38;27.30;77.90
15690;DHT22;7945;48.816;11.506;2022-07-29T07:11:05;27.30;78.00
15690;DHT22;7945;48.816;11.506;2022-07-29T07:13:32;27.20;77.80
15690;DHT22;7945;48.816;11.506;2022-07-29T07:16:00;27.10;78.20
15690;DHT22;7945;48.816;11.506;2022-07-29T07:18:27;27.10;78.10
15690;DHT22;7945;48.816;11.506;2022-07-29T07:20:54;27.20;78.10
15690;DHT22;7945;48.816;11.506;2022-07-29T07:23:24;27.20;77.70
15690;DHT22;7945;48.816;11.506;2022-07-29T07:25:52;27.20;78.40
15690;DHT22;7945;48.816;11.506;2022-07-29T07:28:19;27.10;77.20
15690;DHT22;7945;48.816;11.506;2022-07-29T07:30:46;27.10;77.50
15690;DHT22;7945;48.816;11.506;2022-07-29T07:33:13;27.00;76.90
15690;DHT22;7945;48.816;11.506;2022-07-29T07:35:40;27.10;77.40
15690;DHT22;7945;48.816;11.506;2022-07-29T07:38:07;27.10;77.20
15690;DHT22;7945;48.816;11.506;2022-07-29T07:40:36;27.00;77.60
15690;DHT22;7945;48.816;11.506;2022-07-29T07:43:03;27.10;77.40
15690;DHT22;7945;48.816;11.506;2022-07-29T07:45:30;27.10;77.10
15690;DHT22;7945;48.816;11.506;2022-07-29T07:47:59;27.10;77.70
15690;DHT22;7945;48.816;11.506;2022-07-29T07:50:26;27.10;77.00
15690;DHT22;7945;48.816;11.506;2022-07-29T07:52:55;27.10;76.40
15690;DHT22;7945;48.816;11.506;2022-07-29T07:55:23;27.10;76.50
15690;DHT22;7945;48.816;11.506;2022-07-29T07:57:52;27.10;76.60
15690;DHT22;7945;48.816;11.506;2022-07-29T08:00:19;27.10;76.10
15690;DHT22;7945;48.816;11.506;2022-07-29T08:02:46;27.00;76.70
15690;DHT22;7945;48.816;11.506;2022-07-29T08:05:13;27.00;76.30
15690;DHT22;7945;48.816;11.506;2022-07-29T08:07:43;27.00;76.60
15690;DHT22;7945;48.816;11.506;2022-07-29T08:10:11;27.00;76.60
15690;DHT22;7945;48.816;11.506;2022-07-29T08:12:37;27.00;76.70
15690;DHT22;7945;48.816;11.506;2022-07-29T08:15:07;26.90;76.40
15690;DHT22;7945;48.816;11.506;2022-07-29T08:17:34;26.90;76.30
15690;DHT22;7945;48.816;11.506;2022-07-29T08:20:03;26.90;76.50
15690;DHT22;7945;48.816;11.506;2022-07-29T08:22:29;27.00;76.20
15690;DHT22;7945;48.816;11.506;2022-07-29T08:24:57;27.00;75.90
15690;DHT22;7945;48.816;11.506;2022-07-29T08:27:24;27.00;75.80
15690;DHT22;7945;48.816;11.506;2022-07-29T08:29:51;27.10;75.40
15690;DHT22;7945;48.816;11.506;2022-07-29T08:32:20;27.10;75.30
15690;DHT22;7945;48.816;11.506;2022-07-29T08:34:47;27.10;75.40
15690;DHT22;7945;48.816;11.506;2022-07-29T08:37:14;27.00;75.10
15690;DHT22;7945;48.816;11.506;2022-07-29T08:39:41;27.00;74.90
15690;DHT22;7945;48.816;11.506;2022-07-29T08:42:08;27.00;75.50
15690;DHT22;7945;48.816;11.506;2022-07-29T08:44:35;27.00;74.20
15690;DHT22;7945;48.816;11.506;2022-07-29T08:47:03;27.00;74.40
15690;DHT22;7945;48.816;11.506;2022-07-29T08:49:33;27.10;74.50
15690;DHT22;7945;48.816;11.506;2022-07-29T08:52:00;27.10;74.80
15690;DHT22;7945;48.816;11.506;2022-07-29T08:54:27;27.10;74.40
15690;DHT22;7945;48.816;11.506;2022-07-29T08:56:54;27.10;74.40
15690;DHT22;7945;48.816;11.506;2022-07-29T08:59:25;27.10;74.00
15690;DHT22;7945;48.816;11.506;2022-07-29T09:01:53;27.10;73.50
15690;DHT22;7945;48.816;11.506;2022-07-29T09:04:21;27.10;74.10
15690;DHT22;7945;48.816;11.506;2022-07-29T09:06:54;27.30;73.80
15690;DHT22;7945;48.816;11.506;2022-07-29T09:09:23;27.30;73.70
15690;DHT22;7945;48.816;11.506;2022-07-29T09:11:50;27.40;73.30
15690;DHT22;7945;48.816;11.506;2022-07-29T09:14:19;27.50;73.50
15690;DHT22;7945;48.816;11.506;2022-07-29T09:16:47;27.50;72.50
15690;DHT22;7945;48.816;11.506;2022-07-29T09:19:37;27.50;72.40
15690;DHT22;7945;48.816;11.506;2022-07-29T09:22:06;27.50;72.30
15690;DHT22;7945;48.816;11.506;2022-07-29T09:24:40;27.60;72.70
15690;DHT22;7945;48.816;11.506;2022-07-29T09:27:19;27.60;71.60
15690;DHT22;7945;48.816;11.506;2022-07-29T09:29:54;27.60;70.40
15690;DHT22;7945;48.816;11.506;2022-07-29T09:32:22;27.60;70.60
15690;DHT22;7945;48.816;11.506;2022-07-29T09:34:50;27.70;70.50
15690;DHT22;7945;48.816;11.506;2022-07-29T09:37:27;27.80;70.70
15690;DHT22;7945;48.816;11.506;2022-07-29T09:39:54;28.00;69.40
15690;DHT22;7945;48.816;11.506;2022-07-29T09:42:27;28.20;68.70
15690;DHT22;7945;48.816;11.506;2022-07-29T09:44:54;28.30;68.30
15690;DHT22;7945;48.816;11.506;2022-07-29T09:47:21;28.50;67.60
15690;DHT22;7945;48.816;11.506;2022-07-29T09:49:53;28.60;67.00
15690;DHT22;7945;48.816;11.506;2022-07-29T09:52:21;28.90;66.20
15690;DHT22;7945;48.816;11.506;2022-07-29T09:54:49;29.10;65.60
15690;DHT22;7945;48.816;11.506;2022-07-29T09:57:25;29.10;66.20
15690;DHT22;7945;48.816;11.506;2022-07-29T10:00:00;29.20;65.30
15690;DHT22;7945;48.816;11.506;2022-07-29T10:02:29;29.30;64.50
15690;DHT22;7945;48.816;11.506;2022-07-29T10:04:56;29.50;64.70
15690;DHT22;7945;48.816;11.506;2022-07-29T10:07:24;29.50;63.70
15690;DHT22;7945;48.816;11.506;2022-07-29T10:09:56;29.70;64.10
15690;DHT22;7945;48.816;11.506;2022-07-29T10:12:24;29.80;63.20
15690;DHT22;7945;48.816;11.506;2022-07-29T10:14:51;29.90;62.60
15690;DHT22;7945;48.816;11.506;2022-07-29T10:17:19;29.90;63.60
15690;DHT22;7945;48.816;11.506;2022-07-29T10:19:48;29.90;63.60
15690;DHT22;7945;48.816;11.506;2022-07-29T10:22:15;29.90;63.30
15690;DHT22;7945;48.816;11.506;2022-07-29T10:24:43;29.90;63.20
15690;DHT22;7945;48.816;11.506;2022-07-29T10:27:12;30.00;63.00
15690;DHT22;7945;48.816;11.506;2022-07-29T10:29:40;30.10;63.10
15690;DHT22;7945;48.816;11.506;2022-07-29T10:32:29;30.20;63.10
15690;DHT22;7945;48.816;11.506;2022-07-29T10:35:09;30.20;62.40
15690;DHT22;7945;48.816;11.506;2022-07-29T10:38:04;30.20;62.00
15690;DHT22;7945;48.816;11.506;2022-07-29T10:40:41;30.30;61.50
15690;DHT22;7945;48.816;11.506;2022-07-29T10:43:33;30.40;62.00
15690;DHT22;7945;48.816;11.506;2022-07-29T10:46:04;30.30;61.80
15690;DHT22;7945;48.816;11.506;2022-07-29T10:48:32;30.20;61.40
15690;DHT22;7945;48.816;11.506;2022-07-29T10:51:02;30.10;62.30
15690;DHT22;7945;48.816;11.506;2022-07-29T10:53:49;30.10;61.80
15690;DHT22;7945;48.816;11.506;2022-07-29T10:56:24;30.10;61.80
15690;DHT22;7945;48.816;11.506;2022-07-29T10:59:25;30.30;61.60
15690;DHT22;7945;48.816;11.506;2022-07-29T11:01:54;30.50;60.60
15690;DHT22;7945;48.816;11.506;2022-07-29T11:07:24;31.00;59.20
15690;DHT22;7945;48.816;11.506;2022-07-29T11:10:20;31.20;59.00
15690;DHT22;7945;48.816;11.506;2022-07-29T11:12:47;31.20;59.10
15690;DHT22;7945;48.816;11.506;2022-07-29T11:15:17;31.40;58.30
15690;DHT22;7945;48.816;11.506;2022-07-29T11:18:03;31.50;58.40
15690;DHT22;7945;48.816;11.506;2022-07-29T11:20:32;31.60;57.80
15690;DHT22;7945;48.816;11.506;2022-07-29T11:23:01;31.60;57.20
15690;DHT22;7945;48.816;11.506;2022-07-29T11:25:28;31.50;57.30
15690;DHT22;7945;48.816;11.506;2022-07-29T11:28:10;31.50;58.10
15690;DHT22;7945;48.816;11.506;2022-07-29T11:30:58;31.60;57.90
15690;DHT22;7945;48.816;11.506;2022-07-29T11:33:30;31.60;57.80
15690;DHT22;7945;48.816;11.506;2022-07-29T11:36:10;31.70;58.20
15690;DHT22;7945;48.816;11.506;2022-07-29T11:38:39;31.70;58.30
15690;DHT22;7945;48.816;11.506;2022-07-29T11:41:22;31.80;58.40
15690;DHT22;7945;48.816;11.506;2022-07-29T11:43:50;31.60;57.90
15690;DHT22;7945;48.816;11.506;2022-07-29T11:46:44;31.70;58.30
15690;DHT22;7945;48.816;11.506;2022-07-29T11:49:11;31.80;57.60
15690;DHT22;7945;48.816;11.506;2022-07-29T11:51:39;31.80;58.60
15690;DHT22;7945;48.816;11.506;2022-07-29T11:54:10;31.90;57.40
15690;DHT22;7945;48.816;11.506;2022-07-29T11:56:41;31.90;57.70
15690;DHT22;7945;48.816;11.506;2022-07-29T11:59:11;31.90;57.80
15690;DHT22;7945;48.816;11.506;2022-07-29T12:01:53;31.70;57.70
15690;DHT22;7945;48.816;11.506;2022-07-29T12:04:20;31.70;57.60
15690;DHT22;7945;48.816;11.506;2022-07-29T12:06:49;31.60;57.50
15690;DHT22;7945;48.816;11.506;2022-07-29T12:09:16;31.50;58.10
15690;DHT22;7945;48.816;11.506;2022-07-29T12:11:44;31.60;57.90
15690;DHT22;7945;48.816;11.506;2022-07-29T12:14:24;31.60;57.70
15690;DHT22;7945;48.816;11.506;2022-07-29T12:16:53;31.80;57.50
15690;DHT22;7945;48.816;11.506;2022-07-29T12:19:20;31.80;56.60
15690;DHT22;7945;48.816;11.506;2022-07-29T12:21:49;31.70;57.20
15690;DHT22;7945;48.816;11.506;2022-07-29T12:24:17;31.70;57.00
15690;DHT22;7945;48.816;11.506;2022-07-29T12:26:51;31.60;56.70
15690;DHT22;7945;48.816;11.506;2022-07-29T12:29:19;31.70;56.90
15690;DHT22;7945;48.816;11.506;2022-07-29T12:31:48;31.90;57.20
15690;DHT22;7945;48.816;11.506;2022-07-29T12:34:22;31.90;56.40
15690;DHT22;7945;48.816;11.506;2022-07-29T12:36:50;31.90;56.40
15690;DHT22;7945;48.816;11.506;2022-07-29T12:39:17;31.90;55.30
15690;DHT22;7945;48.816;11.506;2022-07-29T12:41:44;31.80;56.00
15690;DHT22;7945;48.816;11.506;2022-07-29T12:44:11;31.60;53.80
15690;DHT22;7945;48.816;11.506;2022-07-29T12:46:38;31.40;54.60
15690;DHT22;7945;48.816;11.506;2022-07-29T12:49:05;31.20;54.50
15690;DHT22;7945;48.816;11.506;2022-07-29T12:51:35;31.20;55.00
15690;DHT22;7945;48.816;11.506;2022-07-29T12:54:08;31.10;55.20
15690;DHT22;7945;48.816;11.506;2022-07-29T12:56:36;31.00;55.50
15690;DHT22;7945;48.816;11.506;2022-07-29T12:59:12;30.90;55.80
15690;DHT22;7945;48.816;11.506;2022-07-29T13:01:39;30.90;56.40
15690;DHT22;7945;48.816;11.506;2022-07-29T13:04:06;30.90;56.60
15690;DHT22;7945;48.816;11.506;2022-07-29T13:06:36;30.90;56.90
15690;DHT22;7945;48.816;11.506;2022-07-29T13:09:09;30.90;57.30
15690;DHT22;7945;48.816;11.506;2022-07-29T13:11:39;30.90;57.80
15690;DHT22;7945;48.816;11.506;2022-07-29T13:14:07;30.90;58.40
15690;DHT22;7945;48.816;11.506;2022-07-29T13:16:35;30.80;58.10
15690;DHT22;7945;48.816;11.506;2022-07-29T13:19:07;30.80;58.20
15690;DHT22;7945;48.816;11.506;2022-07-29T13:21:36;30.70;57.30
15690;DHT22;7945;48.816;11.506;2022-07-29T13:24:04;30.60;57.20
15690;DHT22;7945;48.816;11.506;2022-07-29T13:26:32;30.60;58.30
15690;DHT22;7945;48.816;11.506;2022-07-29T13:28:59;30.60;59.30
15690;DHT22;7945;48.816;11.506;2022-07-29T13:31:26;30.40;59.10
15690;DHT22;7945;48.816;11.506;2022-07-29T13:33:53;30.50;58.80
15690;DHT22;7945;48.816;11.506;2022-07-29T13:36:20;30.40;58.70
15690;DHT22;7945;48.816;11.506;2022-07-29T13:38:48;30.30;59.40
15690;DHT22;7945;48.816;11.506;2022-07-29T13:41:16;30.20;58.90
15690;DHT22;7945;48.816;11.506;2022-07-29T13:43:44;30.10;59.60
15690;DHT22;7945;48.816;11.506;2022-07-29T13:46:11;30.10;59.90
15690;DHT22;7945;48.816;11.506;2022-07-29T13:48:38;30.10;60.00
15690;DHT22;7945;48.816;11.506;2022-07-29T13:51:05;30.00;60.60
15690;DHT22;7945;48.816;11.506;2022-07-29T13:53:33;30.00;60.90
15690;DHT22;7945;48.816;11.506;2022-07-29T13:56:01;30.00;61.30
15690;DHT22;7945;48.816;11.506;2022-07-29T13:58:31;30.00;61.80
15690;DHT22;7945;48.816;11.506;2022-07-29T14:00:59;30.00;62.30
15690;DHT22;7945;48.816;11.506;2022-07-29T14:03:26;30.00;62.10
15690;DHT22;7945;48.816;11.506;2022-07-29T14:05:53;30.00;62.60
15690;DHT22;7945;48.816;11.506;2022-07-29T14:08:21;30.10;62.60
15690;DHT22;7945;48.816;11.506;2022-07-29T14:10:49;30.00;62.40
15690;DHT22;7945;48.816;11.506;2022-07-29T14:13:17;30.00;62.70
15690;DHT22;7945;48.816;11.506;2022-07-29T14:15:44;30.10;62.70
15690;DHT22;7945;48.816;11.506;2022-07-29T14:18:11;30.10;62.70
15690;DHT22;7945;48.816;11.506;2022-07-29T14:20:38;30.20;62.40
15690;DHT22;7945;48.816;11.506;2022-07-29T14:23:05;30.20;62.20
15690;DHT22;7945;48.816;11.506;2022-07-29T14:25:33;30.20;60.80
15690;DHT22;7945;48.816;11.506;2022-07-29T14:28:00;30.20;61.00
15690;DHT22;7945;48.816;11.506;2022-07-29T14:30:28;30.20;60.10
15690;DHT22;7945;48.816;11.506;2022-07-29T14:32:55;30.10;61.00
15690;DHT22;7945;48.816;11.506;2022-07-29T14:35:22;30.10;61.00
15690;DHT22;7945;48.816;11.506;2022-07-29T14:37:49;30.10;60.60
15690;DHT22;7945;48.816;11.506;2022-07-29T14:40:16;30.00;61.40
15690;DHT22;7945;48.816;11.506;2022-07-29T14:42:43;29.90;61.70
15690;DHT22;7945;48.816;11.506;2022-07-29T14:45:10;29.90;61.50
15690;DHT22;7945;48.816;11.506;2022-07-29T14:47:38;30.00;62.30
15690;DHT22;7945;48.816;11.506;2022-07-29T14:50:06;30.00;62.40
15690;DHT22;7945;48.816;11.506;2022-07-29T14:52:34;30.00;62.50
15690;DHT22;7945;48.816;11.506;2022-07-29T14:55:01;30.00;62.90
15690;DHT22;7945;48.816;11.506;2022-07-29T14:57:28;29.90;64.00
15690;DHT22;7945;48.816;11.506;2022-07-29T14:59:55;29.80;62.90
15690;DHT22;7945;48.816;11.506;2022-07-29T15:02:22;29.80;62.10
15690;DHT22;7945;48.816;11.506;2022-07-29T15:04:50;29.70;62.60
15690;DHT22;7945;48.816;11.506;2022-07-29T15:07:17;29.60;63.70
15690;DHT22;7945;48.816;11.506;2022-07-29T15:09:44;29.60;63.90
15690;DHT22;7945;48.816;11.506;2022-07-29T15:12:11;29.60;64.00
15690;DHT22;7945;48.816;11.506;2022-07-29T15:14:38;29.60;63.90
15690;DHT22;7945;48.816;11.506;2022-07-29T15:17:05;29.60;63.70
15690;DHT22;7945;48.816;11.506;2022-07-29T15:19:32;29.60;64.00
15690;DHT22;7945;48.816;11.506;2022-07-29T15:22:01;29.50;64.70
15690;DHT22;7945;48.816;11.506;2022-07-29T15:24:28;29.50;64.90
15690;DHT22;7945;48.816;11.506;2022-07-29T15:26:54;29.50;66.00
15690;DHT22;7945;48.816;11.506;2022-07-29T15:29:22;29.50;65.40
15690;DHT22;7945;48.816;11.506;2022-07-29T15:31:49;29.50;64.90
15690;DHT22;7945;48.816;11.506;2022-07-29T15:34:16;29.40;64.20
15690;DHT22;7945;48.816;11.506;2022-07-29T15:36:43;29.30;64.20
15690;DHT22;7945;48.816;11.506;2022-07-29T15:39:11;29.20;62.80
15690;DHT22;7945;48.816;11.506;2022-07-29T15:41:38;29.20;62.40
15690;DHT22;7945;48.816;11.506;2022-07-29T15:44:05;29.10;61.00
15690;DHT22;7945;48.816;11.506;2022-07-29T15:46:32;29.10;60.00
15690;DHT22;7945;48.816;11.506;2022-07-29T15:49:16;29.00;62.60
15690;DHT22;7945;48.816;11.506;2022-07-29T15:51:43;29.10;64.40